Time;durP1;ratioP1;P1;durP2;ratioP2;P2;SDS_P1;SDS_P2;PMS_P1;PMS_P2;Temp;Humidity;BMP_temperature;BMP_pressure;BME280_temperature;BME280_humidity;BME280_pressure;Samples;Min_cycle;Max_cycle;Signal;HPM_P1;HPM_P2
2021/10/29 00:01:01;;;;;;;0.30;0.30;;;14.50;99.90;;;;;;20218215;29;20246;-66
2021/10/29 00:11:06;;;;;;;0.57;0.53;;;14.50;99.90;;;;;;20219726;29;20195;-65
2021/10/29 00:21:10;;;;;;;1.17;1.07;;;14.60;99.90;;;;;;20220164;29;20228;-66
2021/10/29 00:31:15;;;;;;;2.87;1.70;;;14.50;99.90;;;;;;20189507;29;20287;-67
2021/10/29 00:41:18;;;;;;;0.80;0.80;;;14.50;99.90;;;;;;20256083;29;20235;-66
2021/10/29 00:51:24;;;;;;;2.20;0.30;;;14.60;99.90;;;;;;20257662;29;20559;-68
2021/10/29 01:01:27;;;;;;;1.17;1.17;;;14.60;99.90;;;;;;20254764;23;20833;-71
2021/10/29 01:11:33;;;;;;;1.60;0.87;;;14.60;99.90;;;;;;20271357;29;20203;-73
2021/10/29 01:21:38;;;;;;;3.10;1.80;;;14.80;99.90;;;;;;20271399;29;20305;-72
2021/10/29 01:31:42;;;;;;;0.43;0.43;;;14.70;99.90;;;;;;20272824;29;20538;-72
2021/10/29 01:41:47;;;;;;;0.50;0.50;;;14.60;99.90;;;;;;20348167;29;20342;-70
2021/10/29 01:51:51;;;;;;;1.47;0.90;;;14.70;99.90;;;;;;20346832;29;20209;-71
2021/10/29 02:01:56;;;;;;;1.80;1.13;;;14.80;99.90;;;;;;20318573;23;20247;-67
2021/10/29 02:12:00;;;;;;;1.57;0.60;;;14.90;99.90;;;;;;20191374;29;20669;-67
2021/10/29 02:22:05;;;;;;;0.30;0.20;;;15.00;99.90;;;;;;20190807;29;20643;-66
2021/10/29 02:32:09;;;;;;;0.70;0.57;;;15.00;99.90;;;;;;20189255;29;20287;-67
2021/10/29 02:42:14;;;;;;;0.90;0.90;;;15.20;99.90;;;;;;20188920;29;20242;-67
2021/10/29 02:52:18;;;;;;;0.27;0.27;;;15.30;99.90;;;;;;20187271;29;20200;-65
2021/10/29 03:02:23;;;;;;;1.23;0.23;;;15.40;99.90;;;;;;20175341;23;20331;-74
2021/10/29 03:12:27;;;;;;;0.50;0.50;;;15.40;99.90;;;;;;20110054;29;20557;-72
2021/10/29 03:22:33;;;;;;;0.40;0.27;;;15.50;99.90;;;;;;20123631;29;20224;-73
2021/10/29 03:32:40;;;;;;;0.77;0.40;;;15.60;99.90;;;;;;20108147;29;20659;-72
2021/10/29 03:42:51;;;;;;;0.30;0.30;;;15.60;99.90;;;;;;20107635;29;20259;-72
2021/10/29 03:52:59;;;;;;;0.33;0.20;;;15.60;99.90;;;;;;20107511;29;20207;-73
2021/10/29 04:03:07;;;;;;;1.80;0.30;;;15.60;99.90;;;;;;20207107;23;20316;-72
2021/10/29 04:13:12;;;;;;;0.30;0.30;;;15.60;99.90;;;;;;20337217;29;20205;-73
2021/10/29 04:23:17;;;;;;;2.87;0.60;;;15.60;99.90;;;;;;20336708;29;20230;-72
2021/10/29 04:33:21;;;;;;;0.20;0.10;;;15.70;99.90;;;;;;20337081;29;20329;-73
2021/10/29 04:43:25;;;;;;;0.40;0.37;;;15.70;99.90;;;;;;20350261;29;20316;-72
2021/10/29 04:53:29;;;;;;;6.50;0.40;;;15.50;99.90;;;;;;20388379;29;20557;-73
2021/10/29 05:03:35;;;;;;;0.27;0.17;;;15.50;99.90;;;;;;20428822;29;20237;-71
2021/10/29 05:13:38;;;;;;;0.20;0.20;;;15.60;99.90;;;;;;20426300;29;20231;-71
2021/10/29 05:23:43;;;;;;;23.00;1.60;;;15.80;99.90;;;;;;20356642;29;20313;-72
2021/10/29 05:33:47;;;;;;;0.83;0.83;;;15.90;99.90;;;;;;20341278;29;20317;-72
2021/10/29 05:43:52;;;;;;;0.20;0.10;;;16.10;99.90;;;;;;20342799;29;20752;-72
2021/10/29 05:54:09;;;;;;;0.20;0.20;;;16.10;99.90;;;;;;20340880;29;20297;-73
2021/10/29 06:04:14;;;;;;;0.20;0.00;;;16.20;99.90;;;;;;20338099;29;20242;-71
2021/10/29 06:14:18;;;;;;;0.77;0.77;;;16.10;99.90;;;;;;20338952;29;20660;-73
2021/10/29 06:24:24;;;;;;;0.30;0.13;;;16.10;99.90;;;;;;20266745;29;20333;-71
2021/10/29 06:34:29;;;;;;;15.30;1.33;;;16.20;99.90;;;;;;20264438;29;20209;-70
2021/10/29 06:44:40;;;;;;;0.20;0.10;;;16.40;99.90;;;;;;20261413;29;20269;-71
2021/10/29 07:05:27;;;;;;;1.03;0.70;;;16.50;99.90;;;;;;20259214;29;20247;-71
2021/10/29 07:46:37;;;;;;;1.40;0.40;;;17.40;99.90;;;;;;20290701;29;20694;-70
2021/10/29 07:56:40;;;;;;;0.40;0.40;;;17.80;99.90;;;;;;20292456;29;20285;-70
2021/10/29 08:07:01;;;;;;;3.50;0.97;;;18.10;99.90;;;;;;20268534;29;20223;-73
2021/10/29 08:17:06;;;;;;;1.03;0.63;;;18.40;99.90;;;;;;20271995;29;20194;-72
2021/10/29 08:27:11;;;;;;;0.53;0.53;;;18.70;99.90;;;;;;20307304;29;20219;-71
2021/10/29 08:37:16;;;;;;;0.97;0.87;;;18.80;99.90;;;;;;20312886;29;20228;-69
2021/10/29 08:48:12;;;;;;;0.60;0.60;;;19.20;99.90;;;;;;20331324;29;20321;-72
2021/10/29 08:58:20;;;;;;;0.93;0.40;;;19.50;99.90;;;;;;20318849;29;20220;-71
2021/10/29 09:08:42;;;;;;;0.70;0.57;;;19.20;99.90;;;;;;20315575;29;20257;-70
2021/10/29 09:39:33;;;;;;;0.30;0.13;;;20.40;99.90;;;;;;20268808;29;20226;-69
2021/10/29 09:49:39;;;;;;;0.60;0.60;;;20.90;99.90;;;;;;20318623;29;20198;-70
2021/10/29 09:59:44;;;;;;;1.43;1.03;;;20.80;99.90;;;;;;20344502;29;20244;-71
2021/10/29 10:09:51;;;;;;;1.35;1.05;;;21.10;99.90;;;;;;20344587;29;20285;-72
2021/10/29 10:19:58;;;;;;;0.95;0.70;;;22.20;99.90;;;;;;20343696;29;20237;-71
2021/10/29 10:30:10;;;;;;;0.45;0.45;;;22.50;99.90;;;;;;20341737;29;20230;-72
2021/10/29 10:50:43;;;;;;;0.93;0.60;;;22.80;99.90;;;;;;20340710;29;20603;-72
2021/10/29 11:00:56;;;;;;;0.40;0.30;;;23.30;99.90;;;;;;20341006;29;20581;-72
2021/10/29 11:11:04;;;;;;;0.90;0.52;;;23.80;99.90;;;;;;20340456;29;20659;-71
2021/10/29 11:21:21;;;;;;;0.57;0.55;;;23.20;99.90;;;;;;20338800;29;20866;-72
2021/10/29 11:31:29;;;;;;;1.23;1.05;;;23.50;99.90;;;;;;20339316;29;20202;-72
2021/10/29 11:41:36;;;;;;;0.68;0.68;;;23.00;99.90;;;;;;20336062;29;20497;-72
2021/10/29 11:51:42;;;;;;;3.30;1.70;;;22.40;99.90;;;;;;20335771;29;20235;-70
2021/10/29 12:01:56;;;;;;;5.10;1.92;;;21.90;99.90;;;;;;20335563;29;20591;-71
2021/10/29 12:12:07;;;;;;;1.90;1.02;;;21.90;99.90;;;;;;20333933;29;20222;-69
2021/10/29 12:32:50;;;;;;;1.70;1.10;;;23.40;99.90;;;;;;20329616;29;20216;-70
2021/10/29 12:53:31;;;;;;;2.08;1.98;;;26.30;99.90;;;;;;20254736;29;20305;-71
2021/10/29 13:04:24;;;;;;;1.05;0.60;;;25.70;99.90;;;;;;20267480;29;20234;-69
2021/10/29 13:14:32;;;;;;;4.57;0.82;;;25.70;99.90;;;;;;20269863;29;20210;-70
2021/10/29 13:35:25;;;;;;;0.40;0.40;;;23.50;99.90;;;;;;20347146;29;20240;-70
2021/10/29 13:56:07;;;;;;;0.20;0.20;;;22.20;99.90;;;;;;20345292;29;20648;-71
2021/10/29 14:37:19;;;;;;;0.95;0.63;;;22.20;99.90;;;;;;20338802;29;20202;-70
2021/10/29 14:47:32;;;;;;;0.40;0.40;;;21.90;99.90;;;;;;20337187;29;20358;-71
2021/10/29 15:28:49;;;;;;;0.57;0.20;;;21.20;99.90;;;;;;20333426;29;20682;-72
2021/10/29 15:49:36;;;;;;;0.80;0.70;;;20.80;99.90;;;;;;20333449;29;20202;-69
2021/10/29 15:59:46;;;;;;;1.23;0.73;;;20.70;99.90;;;;;;20329921;29;20569;-70
2021/10/29 16:20:15;;;;;;;0.60;0.47;;;20.50;99.90;;;;;;20330707;29;20540;-71
2021/10/29 16:30:23;;;;;;;0.50;0.33;;;20.50;99.90;;;;;;20327782;29;20205;-67
2021/10/29 16:40:28;;;;;;;1.13;0.93;;;20.40;99.90;;;;;;20331076;29;20226;-72
2021/10/29 16:50:34;;;;;;;2.27;1.33;;;20.30;99.90;;;;;;20331215;29;20293;-69
2021/10/29 17:00:40;;;;;;;1.50;1.33;;;20.20;99.90;;;;;;20327996;29;20249;-69
2021/10/29 17:10:45;;;;;;;5.80;1.90;;;20.20;99.90;;;;;;20329505;29;20229;-70
2021/10/29 17:20:50;;;;;;;0.87;0.50;;;20.10;99.90;;;;;;20283444;29;20227;-71
2021/10/29 17:30:56;;;;;;;0.43;0.40;;;20.10;99.90;;;;;;20252749;29;20242;-72
2021/10/29 17:41:01;;;;;;;3.60;1.50;;;20.10;99.90;;;;;;20252976;29;20261;-71
2021/10/29 17:51:04;;;;;;;0.70;0.60;;;20.10;99.90;;;;;;20328182;29;20203;-72
2021/10/29 18:01:12;;;;;;;1.17;0.60;;;19.90;99.90;;;;;;20339768;29;20237;-73
2021/10/29 18:11:18;;;;;;;1.70;1.60;;;19.90;99.90;;;;;;20341416;29;20201;-73
2021/10/29 18:21:26;;;;;;;0.50;0.50;;;19.60;99.90;;;;;;20289477;29;20227;-72
2021/10/29 18:31:30;;;;;;;5.40;1.50;;;19.50;99.90;;;;;;20266147;29;20199;-70
2021/10/29 18:41:35;;;;;;;0.50;0.50;;;19.40;99.90;;;;;;20417043;29;20233;-73
2021/10/29 18:51:39;;;;;;;1.60;1.13;;;19.00;99.90;;;;;;20416693;29;20679;-69
2021/10/29 19:01:44;;;;;;;1.60;1.40;;;18.90;99.90;;;;;;20413205;29;20237;-70
2021/10/29 19:11:48;;;;;;;2.63;1.57;;;18.90;99.90;;;;;;20408452;29;20598;-70
2021/10/29 19:21:53;;;;;;;0.60;0.57;;;18.70;99.90;;;;;;20359813;29;20579;-70
2021/10/29 19:31:59;;;;;;;0.40;0.40;;;18.60;99.90;;;;;;20335237;29;20229;-71
2021/10/29 19:42:06;;;;;;;0.80;0.80;;;18.50;99.90;;;;;;20335555;29;20241;-71
2021/10/29 19:52:10;;;;;;;0.90;0.83;;;18.50;99.90;;;;;;20334182;29;20289;-70
2021/10/29 20:02:15;;;;;;;1.37;0.37;;;18.70;99.90;;;;;;20332739;29;20253;-67
2021/10/29 20:12:19;;;;;;;0.50;0.50;;;18.40;99.90;;;;;;20356834;29;20528;-65
2021/10/29 20:22:24;;;;;;;0.30;0.20;;;18.30;99.90;;;;;;20353096;29;20261;-66
2021/10/29 20:32:27;;;;;;;0.20;0.00;;;18.40;99.90;;;;;;20339393;29;20224;-67
2021/10/29 20:42:33;;;;;;;0.20;0.13;;;17.20;99.90;;;;;;20410792;29;20229;-70
2021/10/29 20:52:37;;;;;;;1.03;0.60;;;16.60;99.90;;;;;;20411019;29;20292;-68
2021/10/29 21:02:42;;;;;;;0.30;0.20;;;16.70;99.90;;;;;;20410628;29;20241;-68
2021/10/29 21:12:46;;;;;;;0.20;0.20;;;17.00;99.90;;;;;;21878804;23;20250;-75
2021/10/29 21:22:51;;;;;;;0.20;0.20;;;17.10;99.90;;;;;;20231754;29;20238;-78
2021/10/29 21:32:55;;;;;;;0.20;0.07;;;17.40;99.90;;;;;;20223713;29;20287;-78
2021/10/29 21:43:01;;;;;;;0.33;0.33;;;17.60;99.90;;;;;;20264480;29;20242;-74
2021/10/29 21:53:18;;;;;;;0.20;0.10;;;17.30;99.90;;;;;;20277121;29;20271;-77
2021/10/29 22:03:24;;;;;;;1.60;0.73;;;16.90;99.90;;;;;;20281393;23;20280;-76
2021/10/29 22:13:28;;;;;;;0.20;0.00;;;17.40;99.90;;;;;;20271177;29;20251;-75
2021/10/29 22:23:33;;;;;;;0.30;0.30;;;17.10;99.90;;;;;;20272820;29;20237;-70
2021/10/29 22:33:37;;;;;;;0.20;0.00;;;17.30;99.90;;;;;;20270894;29;20653;-73
2021/10/29 22:43:41;;;;;;;0.20;0.10;;;16.80;99.90;;;;;;20268151;29;20238;-75
2021/10/29 22:53:46;;;;;;;0.47;0.33;;;16.90;99.90;;;;;;20267853;29;20680;-73
2021/10/29 23:03:50;;;;;;;0.20;0.10;;;17.30;99.90;;;;;;20266862;29;20238;-74
2021/10/29 23:13:54;;;;;;;0.27;0.17;;;17.40;99.90;;;;;;20267720;29;20203;-75
2021/10/29 23:23:59;;;;;;;0.20;0.00;;;17.60;99.90;;;;;;21044243;23;20245;-76
2021/10/29 23:44:48;;;;;;;0.20;0.00;;;17.80;99.90;;;;;;21420995;23;20573;-76
2021/10/29 23:54:52;;;;;;;0.20;0.00;;;17.60;99.90;;;;;;20419014;29;20241;-76
